createdAt,value
2023-02-25T00:01:38.903Z,15.48
2023-02-25T00:04:06.100Z,13.07
2023-02-25T00:06:32.989Z,10.73
2023-02-25T00:09:00.982Z,7.13
2023-02-25T00:11:28.333Z,11.98
2023-02-25T00:13:55.437Z,11.23
2023-02-25T00:16:25.135Z,11.10
2023-02-25T00:18:57.270Z,13.98
2023-02-25T00:21:25.353Z,16.52
2023-02-25T00:23:53.533Z,9.65
2023-02-25T00:26:21.805Z,10.63
2023-02-25T00:28:50.416Z,15.30
2023-02-25T00:31:23.861Z,13.13
2023-02-25T00:33:53.053Z,20.73
2023-02-25T00:36:24.745Z,11.02
2023-02-25T00:38:56.104Z,4.47
2023-02-25T00:41:28.171Z,3.50
2023-02-25T00:43:59.437Z,1.98
2023-02-25T00:46:28.380Z,1.63
2023-02-25T00:48:55.434Z,5.15
2023-02-25T00:51:27.009Z,1.55
2023-02-25T00:53:56.361Z,1.98
2023-02-25T00:56:26.044Z,2.97
2023-02-25T00:58:53.488Z,2.53
2023-02-25T01:01:33.221Z,2.38
2023-02-25T01:04:01.024Z,2.38
2023-02-25T01:06:29.572Z,2.55
2023-02-25T01:08:58.612Z,2.58
2023-02-25T01:11:33.591Z,3.00
2023-02-25T01:14:05.877Z,4.55
2023-02-25T01:16:35.899Z,3.63
2023-02-25T01:19:11.734Z,2.35
2023-02-25T01:21:42.452Z,5.13
2023-02-25T01:24:20.774Z,4.82
2023-02-25T01:26:50.919Z,4.95
2023-02-25T01:29:22.265Z,6.03
2023-02-25T01:31:54.644Z,5.25
2023-02-25T01:34:25.905Z,6.63
2023-02-25T01:36:53.256Z,5.28
2023-02-25T01:39:22.505Z,3.70
2023-02-25T01:41:53.052Z,4.70
2023-02-25T01:44:33.378Z,3.50
2023-02-25T01:47:04.224Z,4.85
2023-02-25T01:49:40.101Z,8.70
2023-02-25T01:52:12.575Z,4.90
2023-02-25T01:54:40.482Z,10.25
2023-02-25T01:57:11.015Z,4.80
2023-02-25T01:59:40.515Z,9.77
2023-02-25T02:02:14.896Z,4.72
2023-02-25T02:04:44.296Z,7.82
2023-02-25T02:07:11.917Z,9.27
2023-02-25T02:09:40.284Z,4.30
2023-02-25T02:12:07.931Z,3.72
2023-02-25T02:14:41.499Z,11.43
2023-02-25T02:17:36.153Z,6.07
2023-02-25T02:20:14.391Z,6.88
2023-02-25T02:23:22.647Z,11.32
2023-02-25T02:26:41.141Z,6.00
2023-02-25T02:29:39.422Z,2.90
2023-02-25T02:32:36.112Z,2.47
2023-02-25T02:35:25.285Z,2.45
2023-02-25T02:38:08.376Z,4.75
2023-02-25T02:41:06.757Z,4.03
2023-02-25T02:43:46.180Z,3.17
2023-02-25T02:46:25.413Z,6.43
2023-02-25T02:49:15.896Z,3.63
2023-02-25T02:51:57.172Z,4.97
2023-02-25T02:54:32.680Z,2.53
2023-02-25T02:57:02.157Z,3.42
2023-02-25T02:59:42.860Z,1.45
2023-02-25T03:02:18.942Z,2.22
2023-02-25T03:04:50.465Z,3.50
2023-02-25T03:07:18.344Z,2.72
2023-02-25T03:09:52.472Z,2.38
2023-02-25T03:12:20.033Z,2.38
2023-02-25T03:14:47.549Z,3.90
2023-02-25T03:17:32.165Z,2.53
2023-02-25T03:20:22.697Z,4.25
2023-02-25T03:22:52.086Z,3.65
2023-02-25T03:25:29.349Z,7.07
2023-02-25T03:28:01.697Z,4.80
2023-02-25T03:30:33.266Z,5.80
2023-02-25T03:33:09.557Z,3.17
2023-02-25T03:35:38.501Z,3.65
2023-02-25T03:38:11.164Z,4.22
2023-02-25T03:40:40.326Z,2.53
2023-02-25T03:43:15.390Z,1.92
2023-02-25T03:45:44.370Z,3.58
2023-02-25T03:48:13.458Z,2.20
2023-02-25T03:51:04.232Z,2.38
2023-02-25T03:53:35.334Z,3.97
2023-02-25T03:56:12.051Z,2.65
2023-02-25T03:58:43.942Z,4.25
2023-02-25T04:01:17.466Z,5.38
2023-02-25T04:03:44.978Z,4.03
2023-02-25T04:06:13.861Z,2.53
2023-02-25T04:08:41.697Z,2.70
2023-02-25T04:11:08.942Z,5.00
2023-02-25T04:13:36.013Z,4.35
2023-02-25T04:16:04.599Z,3.92
2023-02-25T04:18:32.327Z,5.00
2023-02-25T04:20:59.880Z,6.07
2023-02-25T04:23:27.033Z,5.25
2023-02-25T04:25:53.959Z,4.43
2023-02-25T04:28:21.012Z,4.40
2023-02-25T04:30:48.011Z,4.05
2023-02-25T04:33:15.167Z,3.20
2023-02-25T04:35:42.205Z,2.53
2023-02-25T04:38:09.455Z,2.53
2023-02-25T04:40:37.034Z,2.97
2023-02-25T04:43:03.927Z,3.13
2023-02-25T04:45:31.081Z,2.72
2023-02-25T04:47:58.208Z,2.38
2023-02-25T04:50:25.937Z,1.55
2023-02-25T04:52:52.948Z,2.15
2023-02-25T04:55:20.030Z,3.20
2023-02-25T04:57:47.052Z,2.72
2023-02-25T05:00:24.349Z,5.32
2023-02-25T05:02:51.359Z,4.68
2023-02-25T05:05:19.348Z,5.45
2023-02-25T05:07:47.066Z,6.30
2023-02-25T05:10:15.051Z,5.40
2023-02-25T05:12:42.566Z,5.85
2023-02-25T05:15:10.666Z,4.38
2023-02-25T05:17:37.967Z,5.18
2023-02-25T05:20:12.873Z,2.92
2023-02-25T05:22:41.250Z,5.90
2023-02-25T05:25:10.164Z,3.42
2023-02-25T05:27:37.616Z,2.72
2023-02-25T05:30:05.448Z,0.88
2023-02-25T05:32:32.709Z,2.17
2023-02-25T05:35:00.324Z,1.67
2023-02-25T05:37:27.559Z,3.65
2023-02-25T05:39:54.753Z,2.13
2023-02-25T05:42:21.985Z,1.15
2023-02-25T05:44:48.928Z,1.15
2023-02-25T05:47:16.370Z,1.02
2023-02-25T05:49:43.594Z,1.88
2023-02-25T05:52:14.387Z,0.55
2023-02-25T05:54:41.638Z,0.82
2023-02-25T05:57:08.778Z,0.70
2023-02-25T05:59:36.766Z,1.00
2023-02-25T06:02:04.777Z,1.40
2023-02-25T06:04:32.054Z,1.23
2023-02-25T06:06:59.232Z,3.20
2023-02-25T06:09:27.219Z,2.70
2023-02-25T06:11:54.311Z,3.75
2023-02-25T06:14:21.188Z,1.20
2023-02-25T06:16:48.238Z,0.60
2023-02-25T06:19:15.266Z,1.23
2023-02-25T06:21:42.230Z,1.23
2023-02-25T06:24:10.766Z,2.20
2023-02-25T06:26:42.599Z,2.35
2023-02-25T06:29:10.294Z,2.83
2023-02-25T06:31:37.533Z,2.13
2023-02-25T06:34:05.200Z,2.65
2023-02-25T06:36:33.121Z,1.52
2023-02-25T06:39:00.666Z,1.88
2023-02-25T06:41:28.302Z,2.35
2023-02-25T06:43:55.409Z,1.95
2023-02-25T06:46:26.950Z,4.22
2023-02-25T06:48:54.605Z,1.02
2023-02-25T06:51:22.275Z,1.02
2023-02-25T06:53:50.962Z,2.95
2023-02-25T06:56:20.202Z,1.77
2023-02-25T06:58:47.871Z,1.00
2023-02-25T07:01:16.730Z,1.33
2023-02-25T07:03:43.789Z,1.92
2023-02-25T07:06:11.485Z,1.00
2023-02-25T07:08:38.541Z,0.93
2023-02-25T07:11:17.575Z,1.95
2023-02-25T07:13:49.660Z,0.93
2023-02-25T07:16:17.470Z,1.48
2023-02-25T07:18:46.181Z,1.58
2023-02-25T07:21:13.852Z,1.25
2023-02-25T07:23:42.180Z,2.22
2023-02-25T07:26:13.282Z,1.50
2023-02-25T07:28:41.116Z,1.60
2023-02-25T07:31:15.471Z,0.80
2023-02-25T07:33:42.940Z,2.05
2023-02-25T07:36:11.598Z,2.53
2023-02-25T07:38:38.938Z,2.58
2023-02-25T07:41:12.743Z,0.88
2023-02-25T07:43:40.567Z,0.80
2023-02-25T07:46:08.871Z,0.98
2023-02-25T07:48:36.041Z,0.85
2023-02-25T07:51:09.880Z,0.60
2023-02-25T07:53:37.250Z,0.80
2023-02-25T07:56:06.826Z,0.73
2023-02-25T07:58:35.400Z,0.75
2023-02-25T08:01:27.966Z,2.58
2023-02-25T08:03:59.217Z,0.55
2023-02-25T08:06:28.015Z,0.68
2023-02-25T08:08:55.331Z,1.70
2023-02-25T08:11:25.456Z,2.13
2023-02-25T08:13:52.699Z,2.17
2023-02-25T08:16:21.563Z,2.80
2023-02-25T08:18:49.640Z,3.17
2023-02-25T08:21:18.660Z,1.60
2023-02-25T08:23:45.791Z,1.00
2023-02-25T08:26:13.296Z,2.33
2023-02-25T08:28:40.237Z,2.78
2023-02-25T08:31:14.117Z,2.42
2023-02-25T08:33:45.519Z,1.95
2023-02-25T08:36:16.718Z,1.75
2023-02-25T08:38:44.479Z,3.58
2023-02-25T08:41:11.665Z,1.77
2023-02-25T08:43:40.833Z,3.88
2023-02-25T08:46:08.918Z,3.85
2023-02-25T08:48:36.346Z,3.08
2023-02-25T08:51:08.669Z,1.88
2023-02-25T08:53:40.619Z,1.30
2023-02-25T08:56:11.576Z,2.38
2023-02-25T08:58:39.465Z,2.17
2023-02-25T09:01:12.995Z,2.63
2023-02-25T09:03:53.033Z,1.67
2023-02-25T09:06:23.711Z,1.35
2023-02-25T09:08:52.441Z,2.15
2023-02-25T09:11:21.049Z,1.90
2023-02-25T09:13:48.628Z,1.65
2023-02-25T09:16:17.194Z,1.42
2023-02-25T09:18:46.170Z,1.23
2023-02-25T09:21:14.492Z,2.50
2023-02-25T09:23:41.751Z,2.97
2023-02-25T09:26:08.844Z,0.70
2023-02-25T09:28:36.649Z,2.15
2023-02-25T09:31:04.214Z,0.77
2023-02-25T09:33:32.625Z,1.55
2023-02-25T09:36:11.955Z,1.10
2023-02-25T09:38:41.317Z,1.17
2023-02-25T09:41:33.695Z,1.25
2023-02-25T09:44:35.827Z,1.30
2023-02-25T09:47:08.622Z,2.28
2023-02-25T09:49:43.055Z,1.65
2023-02-25T09:52:22.541Z,0.70
2023-02-25T09:54:56.645Z,1.00
2023-02-25T09:57:23.751Z,1.20
2023-02-25T09:59:53.674Z,0.73
2023-02-25T10:02:46.813Z,1.33
2023-02-25T10:05:39.127Z,0.40
2023-02-25T10:08:21.590Z,1.27
2023-02-25T10:11:09.992Z,2.25
2023-02-25T10:14:10.014Z,1.88
2023-02-25T10:17:13.114Z,0.95
2023-02-25T10:20:02.603Z,3.60
2023-02-25T10:23:17.677Z,0.40
2023-02-25T10:25:56.626Z,0.70
2023-02-25T10:28:24.504Z,0.55
2023-02-25T10:31:04.485Z,0.38
2023-02-25T10:33:40.642Z,4.15
2023-02-25T10:36:23.143Z,0.20
2023-02-25T10:38:53.212Z,0.70
2023-02-25T10:41:23.632Z,0.60
2023-02-25T10:43:52.826Z,0.45
2023-02-25T10:47:01.292Z,0.60
2023-02-25T10:49:31.016Z,1.20
2023-02-25T10:52:03.213Z,1.17
2023-02-25T10:54:45.499Z,0.30
2023-02-25T10:57:22.264Z,0.22
2023-02-25T11:00:01.744Z,0.90
2023-02-25T11:02:31.501Z,0.50
2023-02-25T11:04:58.677Z,0.55
2023-02-25T11:07:38.044Z,0.55
2023-02-25T11:10:20.450Z,0.38
2023-02-25T11:12:58.457Z,0.73
2023-02-25T11:15:41.632Z,1.52
2023-02-25T11:18:29.183Z,0.47
2023-02-25T11:21:09.833Z,0.63
2023-02-25T11:23:47.079Z,0.50
2023-02-25T11:26:35.037Z,0.85
2023-02-25T11:29:26.221Z,0.68
2023-02-25T11:32:10.472Z,0.70
2023-02-25T11:34:55.498Z,1.48
2023-02-25T11:37:43.034Z,0.80
2023-02-25T11:40:27.905Z,0.90
2023-02-25T11:43:12.972Z,0.75
2023-02-25T11:45:51.322Z,1.65
2023-02-25T11:48:27.844Z,0.60
2023-02-25T11:51:05.508Z,1.35
2023-02-25T11:54:07.563Z,0.38
2023-02-25T11:56:38.642Z,0.90
2023-02-25T11:59:40.347Z,0.63
2023-02-25T12:02:44.435Z,0.80
2023-02-25T12:05:58.263Z,1.13
2023-02-25T12:09:11.010Z,0.50
2023-02-25T12:12:14.824Z,0.52
2023-02-25T12:15:08.628Z,0.70
2023-02-25T12:18:18.857Z,0.52
2023-02-25T12:21:40.816Z,0.43
2023-02-25T12:24:52.116Z,0.47
2023-02-25T12:27:51.036Z,0.68
2023-02-25T12:30:43.008Z,0.32
2023-02-25T12:33:32.983Z,0.52
2023-02-25T12:36:37.471Z,0.32
2023-02-25T12:39:38.245Z,0.50
2023-02-25T12:42:45.555Z,0.25
2023-02-25T12:45:49.350Z,0.55
2023-02-25T12:48:42.679Z,0.57
2023-02-25T12:51:22.929Z,1.05
2023-02-25T12:54:29.098Z,0.88
2023-02-25T12:57:36.135Z,0.80
2023-02-25T13:00:36.935Z,0.93
2023-02-25T13:03:15.566Z,0.30
2023-02-25T13:06:23.864Z,0.65
2023-02-25T13:09:25.691Z,1.30
2023-02-25T13:12:13.183Z,1.10
2023-02-25T13:15:20.407Z,1.52
2023-02-25T13:18:06.899Z,1.33
2023-02-25T13:20:54.587Z,0.52
2023-02-25T13:23:51.889Z,1.33
2023-02-25T13:26:40.783Z,0.73
2023-02-25T13:29:47.814Z,1.02
2023-02-25T13:32:54.434Z,1.83
2023-02-25T13:36:00.774Z,0.57
2023-02-25T13:38:46.094Z,0.98
2023-02-25T13:41:49.893Z,3.20
2023-02-25T13:44:46.741Z,1.20
2023-02-25T13:47:32.428Z,1.35
2023-02-25T13:50:43.198Z,1.30
2023-02-25T13:54:07.608Z,1.85
2023-02-25T13:57:09.276Z,0.47
2023-02-25T14:00:07.091Z,1.70
2023-02-25T14:03:05.099Z,3.42
2023-02-25T14:06:03.833Z,1.83
2023-02-25T14:08:44.625Z,0.98
2023-02-25T14:11:38.288Z,0.93
2023-02-25T14:14:45.737Z,0.52
2023-02-25T14:17:37.657Z,0.20
2023-02-25T14:20:15.496Z,1.17
2023-02-25T14:22:51.404Z,1.42
2023-02-25T14:25:35.000Z,1.00
2023-02-25T14:28:28.548Z,2.35
2023-02-25T14:31:08.392Z,1.33
2023-02-25T14:34:20.985Z,1.13
2023-02-25T14:37:15.988Z,0.73
2023-02-25T14:40:03.039Z,0.85
2023-02-25T14:42:53.792Z,0.75
2023-02-25T14:45:29.058Z,0.73
2023-02-25T14:48:30.371Z,0.90
2023-02-25T14:51:30.438Z,0.50
2023-02-25T14:54:28.137Z,0.68
2023-02-25T15:00:49.683Z,2.78
2023-02-25T15:03:53.543Z,1.20
2023-02-25T15:06:47.946Z,1.27
2023-02-25T15:09:44.194Z,0.32
2023-02-25T15:12:25.455Z,1.23
2023-02-25T15:15:40.110Z,2.63
2023-02-25T15:18:32.015Z,1.77
2023-02-25T15:20:59.303Z,1.52
2023-02-25T15:23:50.774Z,2.42
2023-02-25T15:26:47.351Z,1.30
2023-02-25T15:29:44.424Z,1.83
2023-02-25T15:32:30.874Z,2.30
2023-02-25T15:35:06.937Z,1.48
2023-02-25T15:37:54.914Z,0.95
2023-02-25T15:40:24.124Z,5.97
2023-02-25T15:42:54.014Z,3.15
2023-02-25T15:45:27.595Z,1.38
2023-02-25T15:48:06.841Z,2.72
2023-02-25T15:50:54.974Z,1.83
2023-02-25T15:53:23.166Z,1.10
2023-02-25T15:55:52.333Z,0.82
2023-02-25T15:58:25.435Z,0.98
2023-02-25T16:01:39.441Z,1.38
2023-02-25T16:04:43.307Z,1.52
2023-02-25T16:07:15.778Z,0.80
2023-02-25T16:09:51.753Z,1.25
2023-02-25T16:12:19.299Z,1.58
2023-02-25T16:14:47.168Z,1.15
2023-02-25T16:17:31.830Z,0.80
2023-02-25T16:20:12.466Z,0.70
2023-02-25T16:22:44.505Z,0.73
2023-02-25T16:25:18.897Z,1.08
2023-02-25T16:27:59.917Z,0.95
2023-02-25T16:30:59.038Z,1.17
2023-02-25T16:33:38.096Z,3.13
2023-02-25T16:36:23.461Z,1.95
2023-02-25T16:39:12.384Z,0.47
2023-02-25T16:41:39.794Z,0.80
2023-02-25T16:44:08.372Z,0.73
2023-02-25T16:46:39.239Z,1.33
2023-02-25T16:49:20.354Z,0.90
2023-02-25T16:51:47.865Z,1.35
2023-02-25T16:54:22.340Z,1.15
2023-02-25T16:57:04.172Z,1.73
2023-02-25T16:59:33.809Z,1.75
2023-02-25T17:02:23.618Z,1.55
2023-02-25T17:04:54.796Z,0.75
2023-02-25T17:07:30.028Z,0.80
2023-02-25T17:10:03.899Z,1.00
2023-02-25T17:12:38.885Z,2.17
2023-02-25T17:15:20.361Z,0.93
2023-02-25T17:17:53.497Z,0.68
2023-02-25T17:20:25.033Z,2.42
2023-02-25T17:22:52.543Z,1.38
2023-02-25T17:25:23.897Z,2.22
2023-02-25T17:27:51.297Z,2.03
2023-02-25T17:30:46.051Z,1.00
2023-02-25T17:33:27.056Z,1.70
2023-02-25T17:36:09.381Z,0.80
2023-02-25T17:38:39.020Z,0.80
2023-02-25T17:41:06.755Z,0.60
2023-02-25T17:43:38.752Z,1.08
2023-02-25T17:46:38.173Z,6.35
2023-02-25T17:49:29.500Z,2.05
2023-02-25T17:52:17.231Z,3.17
2023-02-25T17:54:55.539Z,1.55
2023-02-25T17:57:24.704Z,1.35
2023-02-25T18:00:05.562Z,2.22
2023-02-25T18:02:46.090Z,1.83
2023-02-25T18:05:13.008Z,3.70
2023-02-25T18:07:44.645Z,3.53
2023-02-25T18:10:23.710Z,2.40
2023-02-25T18:12:50.981Z,1.45
2023-02-25T18:15:22.393Z,2.40
2023-02-25T18:17:56.350Z,1.55
2023-02-25T18:20:40.879Z,1.77
2023-02-25T18:23:21.862Z,1.60
2023-02-25T18:26:09.677Z,1.85
2023-02-25T18:28:37.043Z,1.75
2023-02-25T18:31:04.206Z,1.48
2023-02-25T18:33:31.310Z,1.70
2023-02-25T18:35:58.904Z,1.23
2023-02-25T18:38:27.599Z,5.07
2023-02-25T18:40:55.351Z,1.80
2023-02-25T18:43:34.276Z,1.85
2023-02-25T18:46:01.946Z,3.92
2023-02-25T18:48:29.189Z,1.85
2023-02-25T18:50:58.400Z,1.75
2023-02-25T18:53:26.920Z,2.63
2023-02-25T18:55:56.797Z,6.55
2023-02-25T18:58:24.879Z,5.00
2023-02-25T19:00:56.600Z,2.53
2023-02-25T19:03:37.691Z,1.92
2023-02-25T19:06:05.939Z,2.58
2023-02-25T19:08:33.237Z,3.15
2023-02-25T19:11:00.389Z,1.40
2023-02-25T19:13:39.318Z,1.33
2023-02-25T19:16:07.182Z,3.30
2023-02-25T19:18:34.587Z,3.67
2023-02-25T19:21:01.647Z,1.55
2023-02-25T19:23:29.113Z,2.85
2023-02-25T19:25:59.615Z,1.13
2023-02-25T19:28:27.075Z,2.92
2023-02-25T19:30:54.759Z,2.70
2023-02-25T19:33:21.782Z,6.15
2023-02-25T19:35:48.921Z,1.92
2023-02-25T19:38:19.336Z,3.28
2023-02-25T19:40:47.829Z,2.22
2023-02-25T19:43:16.463Z,4.45
2023-02-25T19:45:44.277Z,4.55
2023-02-25T19:48:11.547Z,2.30
2023-02-25T19:50:40.955Z,1.92
2023-02-25T19:53:08.673Z,4.47
2023-02-25T19:55:35.608Z,2.47
2023-02-25T19:58:02.683Z,3.28
2023-02-25T20:00:29.904Z,5.20
2023-02-25T20:02:56.915Z,2.63
2023-02-25T20:05:24.695Z,1.45
2023-02-25T20:07:52.418Z,2.42
2023-02-25T20:10:20.082Z,3.10
2023-02-25T20:12:48.135Z,3.78
2023-02-25T20:15:17.158Z,1.25
2023-02-25T20:17:46.486Z,2.60
2023-02-25T20:20:15.340Z,2.17
2023-02-25T20:22:43.492Z,1.13
2023-02-25T20:25:13.148Z,3.50
2023-02-25T20:27:43.283Z,2.60
2023-02-25T20:30:14.487Z,1.80
2023-02-25T20:32:43.576Z,5.57
2023-02-25T20:35:20.671Z,4.15
2023-02-25T20:38:27.527Z,2.47
2023-02-25T20:40:54.805Z,2.95
2023-02-25T20:43:22.115Z,3.47
2023-02-25T20:45:49.238Z,2.13
2023-02-25T20:48:33.021Z,2.95
2023-02-25T20:51:00.658Z,1.85
2023-02-25T20:53:27.827Z,2.78
2023-02-25T20:55:57.411Z,1.35
2023-02-25T20:58:24.509Z,2.45
2023-02-25T21:00:51.595Z,2.63
2023-02-25T21:03:18.532Z,3.05
2023-02-25T21:05:45.618Z,2.15
2023-02-25T21:08:12.646Z,2.90
2023-02-25T21:10:39.747Z,1.63
2023-02-25T21:13:06.760Z,3.15
2023-02-25T21:15:33.609Z,2.35
2023-02-25T21:18:00.508Z,2.47
2023-02-25T21:20:27.475Z,2.05
2023-02-25T21:22:54.533Z,2.42
2023-02-25T21:25:21.549Z,3.58
2023-02-25T21:27:48.569Z,3.60
2023-02-25T21:30:16.240Z,2.65
2023-02-25T21:32:43.121Z,4.75
2023-02-25T21:35:10.784Z,3.13
2023-02-25T21:37:38.082Z,3.15
2023-02-25T21:40:05.701Z,2.25
2023-02-25T21:42:33.572Z,6.45
2023-02-25T21:45:00.560Z,2.95
2023-02-25T21:47:27.583Z,2.33
2023-02-25T21:49:55.249Z,1.58
2023-02-25T21:52:22.702Z,3.58
2023-02-25T21:54:49.857Z,2.20
2023-02-25T21:57:16.974Z,1.38
2023-02-25T21:59:44.132Z,1.65
2023-02-25T22:02:11.224Z,2.38
2023-02-25T22:04:38.150Z,3.25
2023-02-25T22:07:05.092Z,5.35
2023-02-25T22:09:32.035Z,1.90
2023-02-25T22:11:59.074Z,3.10
2023-02-25T22:14:26.318Z,1.88
2023-02-25T22:19:44.417Z,4.78
2023-02-25T22:22:13.554Z,2.22
2023-02-25T22:24:41.120Z,2.17
2023-02-25T22:27:08.090Z,3.42
2023-02-25T22:29:35.012Z,4.45
2023-02-25T22:32:01.965Z,2.50
2023-02-25T22:34:29.062Z,1.40
2023-02-25T22:36:56.061Z,2.38
2023-02-25T22:39:22.939Z,2.00
2023-02-25T22:41:49.928Z,1.23
2023-02-25T22:44:16.929Z,1.30
2023-02-25T22:46:44.223Z,2.53
2023-02-25T22:49:11.654Z,3.33
2023-02-25T22:51:43.091Z,4.22
2023-02-25T22:54:16.845Z,4.80
2023-02-25T22:56:45.745Z,0.75
2023-02-25T22:59:14.475Z,3.42
2023-02-25T23:01:41.440Z,2.40
2023-02-25T23:04:08.506Z,2.63
2023-02-25T23:06:43.332Z,3.05
2023-02-25T23:09:13.440Z,1.08
2023-02-25T23:11:42.881Z,2.78
2023-02-25T23:14:10.785Z,1.67
2023-02-25T23:16:43.783Z,3.00
2023-02-25T23:19:16.282Z,3.28
2023-02-25T23:21:43.999Z,3.55
2023-02-25T23:24:16.124Z,2.30
2023-02-25T23:26:44.416Z,2.53
2023-02-25T23:29:12.474Z,4.43
2023-02-25T23:31:45.252Z,1.30
2023-02-25T23:34:18.438Z,3.28
2023-02-25T23:36:45.860Z,1.35
2023-02-25T23:39:14.164Z,3.33
2023-02-25T23:41:41.957Z,3.55
2023-02-25T23:44:11.429Z,2.28
2023-02-25T23:46:39.432Z,7.45
2023-02-25T23:49:07.441Z,1.58
2023-02-25T23:51:36.070Z,3.40
2023-02-25T23:54:05.899Z,4.97
2023-02-25T23:56:34.207Z,3.47
2023-02-25T23:59:01.624Z,5.95
